createdAt,value
2023-03-29T00:14:24.888Z,5.4
2023-03-29T02:14:45.076Z,5.2
2023-03-29T04:07:33.106Z,4.9
2023-03-29T05:07:43.158Z,5
2023-03-29T05:22:51.595Z,5
2023-03-29T05:37:52.477Z,5
2023-03-29T05:52:53.610Z,5
2023-03-29T06:07:53.499Z,5.1
2023-03-29T06:23:01.391Z,5.1
2023-03-29T06:39:31.902Z,5.1
2023-03-29T06:53:03.397Z,5.1
2023-03-29T07:08:03.794Z,5.3
2023-03-29T08:08:13.595Z,5.3
2023-03-29T08:23:22.070Z,5.3
2023-03-29T08:38:23.296Z,5.3
2023-03-29T08:53:24.278Z,5.3
2023-03-29T09:08:24.014Z,5.3
2023-03-29T09:23:32.724Z,5.3
2023-03-29T09:38:33.729Z,5.3
2023-03-29T09:53:34.836Z,5.3
2023-03-29T10:08:34.333Z,5.3
2023-03-29T10:23:43.265Z,5.3
2023-03-29T10:38:44.403Z,5.2
2023-03-29T10:53:44.800Z,5.2
2023-03-29T11:08:44.230Z,5.1
2023-03-29T11:23:53.411Z,5.1
2023-03-29T12:08:54.477Z,5
2023-03-29T13:09:04.927Z,4.9
2023-03-29T13:24:13.002Z,4.9
2023-03-29T13:39:13.700Z,4.9
2023-03-29T13:54:14.999Z,4.8
2023-03-29T14:09:14.837Z,4.8
2023-03-29T14:24:23.719Z,4.8
2023-03-29T14:39:25.222Z,4.8
2023-03-29T14:54:25.724Z,4.8
2023-03-29T16:09:35.252Z,4.9
2023-03-29T16:24:43.901Z,4.9
2023-03-29T16:39:45.667Z,4.9
2023-03-29T18:09:56.655Z,5.3
2023-03-29T19:10:05.674Z,5.4
2023-03-29T19:25:13.951Z,5.4
2023-03-29T19:40:14.976Z,5.4
2023-03-29T19:55:16.267Z,5.4
2023-03-29T20:10:17.992Z,-97
2023-03-29T20:25:27.363Z,-97
2023-03-29T20:40:27.662Z,-97
2023-03-29T20:55:28.846Z,-97
2023-03-29T21:10:25.931Z,5.6
2023-03-29T21:25:34.208Z,5.6
2023-03-29T21:40:36.484Z,5.6
2023-03-29T21:55:50.233Z,5.6
